• Join FlightAware (Why Join?)
  • Login
  • US Flag 
11:45PM EDT


 

Airport Tracker/Info


-or-


 

Live Flight TrackerFlight Track Log ✈ N182BB ✈ 02-Oct-2013 ✈ KCQX - 7B3

Flight Track Log - Related Links

Times and Time Zones

All times are in EDT time to prevent confusion due to time zone crossing. See the N182BB flight status page for this flight to view local times or setup timezone preferences in your user account.

Time Position Orientation Groundspeed Altitude Reporting Facility
EDT Latitude Longitude Course Direction KTS MPH feet Rate Location/Type
04:23PM 41.8368 -70.0855 296° West  Level Estimated
04:24PM 41.8416 -70.1218 280° West  Level FlightAware Approximate
04:25PM 41.8465 -70.1581 280° West  Level FlightAware Approximate
04:26PM 41.8513 -70.1944 280° West  Level FlightAware Approximate
04:27PM 41.8561 -70.2307 280° West  Level FlightAware Approximate
04:28PM 41.8609 -70.2670 280° West  Level FlightAware Approximate
04:29PM 41.8657 -70.3033 280° West  Level FlightAware Approximate
04:30PM 41.8916 -70.3155 323° Northwest  Level Estimated
04:31PM 41.9000 -70.3507 288° West  Level FlightAware Approximate
04:32PM 41.9083 -70.3858 288° West  Level FlightAware Approximate
04:33PM 41.9346 -70.3967 326° Northwest  Level Estimated
04:34PM 41.9535 -70.4235 314° West  Level FlightAware Approximate
04:35PM 41.9724 -70.4503 314° West  Level FlightAware Approximate
04:35PM 41.9500 -70.4500 313° West 111 128 6,100  Level KA90
04:36PM 41.9913 -70.4771 313° West  Level FlightAware Approximate
04:36PM 41.9833 -70.5000 312° West 110 127 6,000  Level KA90
04:37PM 42.0102 -70.5039 313° West  Level FlightAware Approximate
04:37PM 42.0000 -70.5333 304° West 108 124 6,000  Level KA90
04:38PM 42.0291 -70.5307 313° West  Level FlightAware Approximate
04:38PM 42.0167 -70.5667 304° West 104 120 6,000  Level KA90
04:39PM 42.0480 -70.5576 313° West  Level FlightAware Approximate
04:39PM 42.0333 -70.5833 323° Northwest 105 121 6,000  Level KA90
04:40PM 42.0668 -70.5845 313° West  Level FlightAware Approximate
04:40PM 42.0500 -70.6167 304° West 106 122 6,000  Level KA90
04:41PM 42.0500 -70.6500 270° West 104 120 6,000  Level KA90
04:42PM 42.0500 -70.7000 270° West 101 116 6,000  Level KA90
04:43PM 42.0500 -70.7333 270° West 103 119 6,000  Level KA90
04:44PM 42.0667 -70.7833 294° West 101 116 6,000  Level KA90
04:45PM 42.0667 -70.8167 270° West 99 114 6,000  Level KA90
04:46PM 42.0833 -70.8500 304° West 102 117 6,000  Level KA90
04:47PM 42.1000 -70.8667 323° Northwest 103 119 6,000  Level KA90
04:48PM 42.1167 -70.9000 304° West 98 113 6,000  Level KA90
04:49PM 42.1333 -70.9333 304° West 103 119 6,000  Level KA90
04:50PM 42.1500 -70.9500 323° Northwest 101 116 6,000  Level KA90
04:51PM 42.1667 -70.9833 304° West 98 113 6,000  Level KA90
04:52PM 42.2000 -71.0167 323° Northwest 103 119 6,000  Level KA90
04:53PM 42.2167 -71.0333 323° Northwest 105 121 6,000  Level KA90
04:54PM 42.2500 -71.0500 340° North 102 117 6,000  Level KA90
04:55PM 42.2667 -71.0500 360° North 100 115 6,000  Level KA90
04:56PM 42.3000 -71.0667 340° North 113 130 6,000  Level KA90
04:57PM 42.3333 -71.0833 340° North 112 129 6,000  Level KA90
04:58PM 42.3667 -71.0833 360° North 102 117 6,000  Level KA90
04:59PM 42.3833 -71.1000 324° Northwest 109 125 6,000  Level KA90
05:00PM 42.4167 -71.1167 340° North 101 116 6,000  Level KA90
05:01PM 42.4500 -71.1333 340° North 101 116 6,000  Level KA90
05:02PM 42.4667 -71.1500 324° Northwest 100 115 6,000 -180 Level KA90
05:03PM 42.5000 -71.1667 340° North 117 135 5,700 -180 Descending KA90
05:04PM 42.5333 -71.1667 360° North 136 157 5,700 -60 Level KA90
05:05PM 42.5667 -71.1500 20° North 130 150 5,600 -240 Descending KA90
05:06PM 42.6000 -71.1333 20° North 142 163 5,300 -300 Descending KA90
05:07PM 42.6333 -71.1167 20° North 150 173 5,000 -360 Descending KA90
05:08PM 42.6667 -71.0833 36° Northeast 146 168 4,600 -360 Descending KA90
05:09PM 42.7167 -71.0500 26° Northeast 148 170 4,300 -360 Descending KA90
05:10PM 42.7500 -71.0333 20° North 145 167 3,900 -180 Descending KA90
05:11PM 42.7833 -71.0000 36° Northeast 138 159 4,000  Climbing KA90
05:12PM 42.8167 -70.9667 36° Northeast 140 161 4,000 -300 Level KA90
05:13PM 42.8500 -70.9333 36° Northeast 151 174 3,400 -600 Descending KA90